Time;durP1;ratioP1;P1;durP2;ratioP2;P2;SDS_P1;SDS_P2;PMS_P1;PMS_P2;Temp;Humidity;BMP_temperature;BMP_pressure;BME280_temperature;BME280_humidity;BME280_pressure;Samples;Min_cycle;Max_cycle;Signal;HPM_P1;HPM_P2
2023/11/16 00:00:40;;;;;;;20.08;4.07;;;5.00;99.90;;;;;;6223164;28;20062;-83
2023/11/16 00:03:45;;;;;;;14.25;3.50;;;4.90;99.90;;;;;;6228716;28;20054;-83
2023/11/16 00:06:47;;;;;;;13.95;3.70;;;4.90;99.90;;;;;;6204762;28;20057;-82
2023/11/16 00:09:48;;;;;;;14.23;3.38;;;4.90;99.90;;;;;;6232373;28;20046;-82
2023/11/16 00:12:50;;;;;;;11.63;3.40;;;4.90;99.90;;;;;;6228131;28;20053;-83
2023/11/16 00:15:52;;;;;;;14.05;3.38;;;4.90;99.90;;;;;;6220505;28;20115;-83
2023/11/16 00:18:54;;;;;;;16.77;3.60;;;4.90;99.90;;;;;;6220769;28;20050;-83
2023/11/16 00:21:56;;;;;;;16.30;3.20;;;4.90;99.90;;;;;;6231535;28;20062;-84
2023/11/16 00:24:58;;;;;;;18.85;3.17;;;5.00;99.90;;;;;;6207237;28;20061;-82
2023/11/16 00:28:00;;;;;;;14.13;3.70;;;5.00;99.90;;;;;;6246537;28;20508;-82
2023/11/16 00:31:02;;;;;;;13.45;3.45;;;5.10;99.90;;;;;;6201992;28;20426;-84
2023/11/16 00:34:03;;;;;;;16.38;3.83;;;5.10;99.90;;;;;;6179349;28;20054;-82
2023/11/16 00:37:06;;;;;;;18.05;3.75;;;5.20;99.90;;;;;;6228104;28;20109;-85
2023/11/16 00:40:08;;;;;;;13.98;3.00;;;5.20;99.90;;;;;;6205495;28;20054;-84
2023/11/16 00:43:10;;;;;;;11.90;3.20;;;5.30;99.90;;;;;;6228732;28;20049;-88
2023/11/16 00:46:12;;;;;;;11.48;3.10;;;5.30;99.90;;;;;;6218807;28;20412;-87
2023/11/16 00:49:13;;;;;;;14.93;3.22;;;5.30;99.90;;;;;;6204746;28;20057;-86
2023/11/16 00:52:19;;;;;;;14.15;3.08;;;5.30;99.90;;;;;;6241034;28;20053;-85
2023/11/16 00:55:21;;;;;;;10.73;3.03;;;5.40;99.90;;;;;;6203921;28;20516;-86
2023/11/16 00:58:23;;;;;;;12.65;2.70;;;5.40;99.90;;;;;;6225504;28;20619;-83
2023/11/16 01:01:26;;;;;;;12.40;3.30;;;5.40;99.90;;;;;;6201485;28;20046;-84
2023/11/16 01:04:28;;;;;;;13.23;2.97;;;5.40;99.90;;;;;;6197134;28;20046;-87
2023/11/16 01:07:30;;;;;;;11.38;3.20;;;5.40;99.90;;;;;;6227982;28;20053;-85
2023/11/16 01:10:32;;;;;;;12.90;3.05;;;5.40;99.90;;;;;;6222747;28;20723;-87
2023/11/16 01:13:38;;;;;;;11.70;2.97;;;5.40;99.90;;;;;;6222364;28;20045;-82
2023/11/16 01:16:41;;;;;;;12.18;2.83;;;5.50;99.90;;;;;;6202447;28;20057;-85
2023/11/16 01:19:45;;;;;;;10.55;2.45;;;5.50;99.90;;;;;;6203800;28;20061;-83
2023/11/16 01:23:10;;;;;;;14.40;2.83;;;5.50;99.90;;;;;;6220301;28;20132;-86
2023/11/16 01:26:20;;;;;;;7.18;2.28;;;5.50;99.90;;;;;;6203256;28;20057;-85
2023/11/16 01:29:22;;;;;;;11.70;2.55;;;5.50;99.90;;;;;;6197491;28;20053;-82
2023/11/16 01:32:24;;;;;;;10.90;2.47;;;5.40;99.90;;;;;;6203613;28;20080;-85
2023/11/16 01:35:25;;;;;;;11.52;3.15;;;5.50;99.90;;;;;;6233230;28;20065;-88
2023/11/16 01:38:30;;;;;;;13.10;2.70;;;5.40;99.90;;;;;;6227255;28;20135;-84
2023/11/16 01:41:31;;;;;;;13.18;2.67;;;5.50;99.90;;;;;;6220896;28;20060;-84
2023/11/16 01:44:33;;;;;;;16.55;3.40;;;5.60;99.90;;;;;;6212864;28;20053;-86
2023/11/16 01:47:35;;;;;;;10.55;2.97;;;5.50;99.90;;;;;;6215410;28;20054;-83
2023/11/16 01:50:36;;;;;;;12.80;3.22;;;5.50;99.90;;;;;;6249843;28;20609;-86
2023/11/16 01:53:38;;;;;;;12.23;3.00;;;5.50;99.90;;;;;;6223945;28;20058;-86
2023/11/16 01:56:40;;;;;;;14.25;3.10;;;5.50;99.90;;;;;;6233341;28;20056;-83
2023/11/16 01:59:41;;;;;;;9.75;2.80;;;5.50;99.90;;;;;;6236793;28;20065;-83
2023/11/16 02:02:43;;;;;;;10.85;3.30;;;5.50;99.90;;;;;;6233535;28;20049;-85
2023/11/16 02:05:45;;;;;;;14.85;2.80;;;5.60;99.90;;;;;;6208645;28;20069;-86
2023/11/16 02:08:47;;;;;;;11.73;3.33;;;5.60;99.90;;;;;;6240543;28;20050;-85
2023/11/16 02:11:48;;;;;;;11.85;3.10;;;5.60;99.90;;;;;;6217724;28;20065;-82
2023/11/16 02:14:50;;;;;;;9.50;2.60;;;5.60;99.90;;;;;;6256091;28;20054;-85
2023/11/16 02:17:52;;;;;;;11.52;2.90;;;5.60;99.90;;;;;;6233737;28;20424;-81
2023/11/16 02:20:54;;;;;;;14.20;3.05;;;5.60;99.90;;;;;;6234847;28;20069;-84
2023/11/16 02:23:56;;;;;;;13.02;2.65;;;5.60;99.90;;;;;;6233490;28;20074;-82
2023/11/16 02:26:58;;;;;;;7.75;2.38;;;5.60;99.90;;;;;;6240812;28;20060;-83
2023/11/16 02:30:00;;;;;;;14.05;3.25;;;5.60;99.90;;;;;;6223590;28;20452;-84
2023/11/16 02:33:02;;;;;;;9.38;2.50;;;5.70;99.90;;;;;;6222194;28;20049;-84
2023/11/16 02:36:03;;;;;;;9.50;2.80;;;5.60;99.90;;;;;;6228863;28;20563;-84
2023/11/16 02:39:07;;;;;;;6.95;2.08;;;5.60;99.90;;;;;;6205650;28;20544;-83
2023/11/16 02:42:12;;;;;;;12.70;2.88;;;5.70;99.90;;;;;;6232434;28;20046;-84
2023/11/16 02:45:13;;;;;;;9.30;2.50;;;5.70;99.90;;;;;;6211675;28;20056;-83
2023/11/16 02:48:15;;;;;;;11.77;3.00;;;5.70;99.90;;;;;;6251381;28;20520;-83
2023/11/16 02:51:17;;;;;;;11.48;2.70;;;5.70;99.90;;;;;;6225904;28;20521;-84
2023/11/16 02:54:19;;;;;;;9.35;2.83;;;5.70;99.90;;;;;;6232037;28;20054;-86
2023/11/16 02:57:20;;;;;;;12.07;2.85;;;5.60;99.90;;;;;;6209798;28;20108;-83
2023/11/16 03:00:22;;;;;;;9.57;2.38;;;5.70;99.90;;;;;;6213059;28;20057;-83
2023/11/16 03:03:24;;;;;;;11.88;3.10;;;5.60;99.90;;;;;;6225883;28;20046;-83
2023/11/16 03:06:26;;;;;;;9.05;2.67;;;5.60;99.90;;;;;;6221557;28;20092;-85
2023/11/16 03:09:27;;;;;;;11.63;2.70;;;5.60;99.90;;;;;;6249519;28;20532;-83
2023/11/16 03:12:30;;;;;;;8.15;2.20;;;5.60;99.90;;;;;;6210694;28;20068;-86
2023/11/16 03:15:31;;;;;;;10.95;2.50;;;5.70;99.90;;;;;;6248418;28;20524;-84
2023/11/16 03:18:33;;;;;;;10.57;2.80;;;5.70;99.90;;;;;;6208213;28;20057;-85
2023/11/16 03:21:35;;;;;;;11.57;2.97;;;5.70;99.90;;;;;;6236562;28;20045;-85
2023/11/16 03:24:37;;;;;;;11.07;3.03;;;5.60;99.90;;;;;;6234081;28;20057;-87
2023/11/16 03:27:42;;;;;;;7.97;2.63;;;5.60;99.90;;;;;;6208724;28;20042;-84
2023/11/16 03:30:44;;;;;;;11.73;3.22;;;5.60;99.90;;;;;;6228094;28;20489;-85
2023/11/16 03:33:45;;;;;;;12.57;2.80;;;5.50;99.90;;;;;;6224384;28;20077;-85
2023/11/16 03:36:47;;;;;;;12.45;3.10;;;5.50;99.90;;;;;;6238968;28;20108;-86
2023/11/16 03:39:48;;;;;;;11.63;2.85;;;5.60;99.90;;;;;;6231694;28;20436;-86
2023/11/16 03:42:50;;;;;;;10.98;2.80;;;5.50;99.90;;;;;;6207362;28;20045;-85
2023/11/16 03:45:52;;;;;;;13.35;2.80;;;5.50;99.90;;;;;;6216679;28;20054;-85
2023/11/16 03:48:54;;;;;;;11.23;2.88;;;5.40;99.90;;;;;;6232465;28;20417;-85
2023/11/16 03:51:57;;;;;;;13.25;3.17;;;5.40;99.90;;;;;;6206580;28;20077;-89
2023/11/16 03:55:02;;;;;;;12.70;2.88;;;5.40;99.90;;;;;;6192423;28;20050;-88
2023/11/16 03:58:03;;;;;;;12.57;2.85;;;5.40;99.90;;;;;;6228598;28;20052;-87
2023/11/16 04:01:05;;;;;;;9.77;2.58;;;5.30;99.90;;;;;;6218989;28;20339;-85
2023/11/16 04:04:10;;;;;;;10.63;3.00;;;5.40;99.90;;;;;;6199386;28;20046;-86
2023/11/16 04:07:12;;;;;;;9.85;2.55;;;5.30;99.90;;;;;;6197103;28;20387;-87
2023/11/16 04:10:14;;;;;;;10.43;2.60;;;5.40;99.90;;;;;;6229370;28;20130;-83
2023/11/16 04:13:17;;;;;;;9.88;3.00;;;5.30;99.90;;;;;;6207624;28;20120;-85
2023/11/16 04:16:24;;;;;;;7.70;2.67;;;5.40;99.90;;;;;;6216289;28;20490;-87
2023/11/16 04:19:25;;;;;;;8.73;2.80;;;5.40;99.90;;;;;;6185550;28;20061;-82
2023/11/16 04:22:28;;;;;;;12.85;3.10;;;5.40;99.90;;;;;;6228311;28;20169;-86
2023/11/16 04:25:33;;;;;;;11.27;3.05;;;5.40;99.90;;;;;;6230951;28;20564;-85
2023/11/16 04:28:36;;;;;;;9.50;2.85;;;5.40;99.90;;;;;;6229315;28;20417;-85
2023/11/16 04:31:38;;;;;;;9.43;2.80;;;5.40;99.90;;;;;;6224800;28;20497;-86
2023/11/16 04:34:42;;;;;;;11.30;2.70;;;5.40;99.90;;;;;;6229467;28;20514;-85
2023/11/16 04:37:44;;;;;;;10.05;2.72;;;5.50;99.90;;;;;;6205513;28;20099;-85
2023/11/16 04:40:45;;;;;;;8.95;2.50;;;5.50;99.90;;;;;;6229519;28;20448;-83
2023/11/16 04:43:47;;;;;;;10.02;2.60;;;5.50;99.90;;;;;;6208756;28;20056;-88
2023/11/16 04:46:49;;;;;;;12.73;2.70;;;5.50;99.90;;;;;;6228820;28;20061;-84
2023/11/16 04:49:50;;;;;;;7.68;2.35;;;5.50;99.90;;;;;;6224532;28;20506;-85
2023/11/16 04:52:54;;;;;;;11.38;2.58;;;5.50;99.90;;;;;;6230910;28;20057;-85
2023/11/16 04:55:59;;;;;;;8.77;2.50;;;5.50;99.90;;;;;;6206939;28;20057;-85
2023/11/16 04:59:01;;;;;;;8.90;2.42;;;5.60;99.90;;;;;;6211423;28;20058;-87
2023/11/16 05:02:02;;;;;;;8.30;2.30;;;5.60;99.90;;;;;;6246780;28;20049;-85
2023/11/16 05:05:05;;;;;;;11.02;3.00;;;5.70;99.90;;;;;;6208789;28;20041;-86
2023/11/16 05:08:06;;;;;;;8.65;2.85;;;5.70;99.90;;;;;;6240423;28;20045;-84
2023/11/16 05:11:08;;;;;;;9.55;2.55;;;5.70;99.90;;;;;;6233174;28;20057;-84
2023/11/16 05:14:09;;;;;;;9.90;2.50;;;5.70;99.90;;;;;;6232918;28;20065;-86
2023/11/16 05:17:11;;;;;;;9.38;2.65;;;5.70;99.90;;;;;;6239005;28;20105;-84
2023/11/16 05:20:13;;;;;;;10.27;3.03;;;5.70;99.90;;;;;;6266422;28;20053;-84
2023/11/16 05:23:17;;;;;;;8.30;2.70;;;5.70;99.90;;;;;;6225531;28;20084;-84
2023/11/16 05:26:18;;;;;;;9.48;2.55;;;5.70;99.90;;;;;;6251225;28;20064;-84
2023/11/16 05:29:20;;;;;;;8.30;2.25;;;5.70;99.90;;;;;;6248571;28;20049;-85
2023/11/16 05:32:21;;;;;;;10.00;2.63;;;5.70;99.90;;;;;;6224635;28;20056;-86
2023/11/16 05:35:23;;;;;;;9.13;2.67;;;5.70;99.90;;;;;;6243464;28;20049;-83
2023/11/16 05:38:25;;;;;;;9.93;3.05;;;5.70;99.90;;;;;;6207559;28;20425;-85
2023/11/16 05:41:27;;;;;;;11.63;2.78;;;5.70;99.90;;;;;;6247205;28;20053;-84
2023/11/16 05:44:29;;;;;;;8.02;2.55;;;5.70;99.90;;;;;;6230878;28;20512;-85
2023/11/16 05:47:31;;;;;;;11.50;2.70;;;5.70;99.90;;;;;;6203843;28;20066;-85
2023/11/16 05:50:33;;;;;;;6.95;2.47;;;5.70;99.90;;;;;;6240567;28;20052;-84
2023/11/16 05:53:34;;;;;;;11.88;3.05;;;5.70;99.90;;;;;;6214435;28;20065;-84
2023/11/16 05:56:40;;;;;;;8.80;2.80;;;5.70;99.90;;;;;;6227376;28;20057;-83
2023/11/16 05:59:42;;;;;;;12.85;3.38;;;5.70;99.90;;;;;;6215510;28;20045;-85
2023/11/16 06:02:44;;;;;;;11.43;3.03;;;5.70;99.90;;;;;;6221120;28;20049;-84
2023/11/16 06:05:45;;;;;;;9.90;2.53;;;5.70;99.90;;;;;;6219079;28;20504;-84
2023/11/16 06:08:48;;;;;;;12.63;3.50;;;5.70;99.90;;;;;;6230003;28;20056;-85
2023/11/16 06:11:50;;;;;;;12.27;3.05;;;5.70;99.90;;;;;;6210917;28;20066;-87
2023/11/16 06:14:55;;;;;;;10.10;2.50;;;5.80;99.90;;;;;;6217931;28;20046;-87
2023/11/16 06:18:02;;;;;;;13.40;3.25;;;5.80;99.90;;;;;;6236305;28;20050;-86
2023/11/16 06:21:04;;;;;;;8.88;3.05;;;5.80;99.90;;;;;;6202567;28;20053;-87
2023/11/16 06:24:06;;;;;;;9.98;3.03;;;6.00;99.90;;;;;;6222033;28;20046;-86
2023/11/16 06:27:08;;;;;;;10.30;3.17;;;5.90;99.90;;;;;;6222590;28;20511;-87
2023/11/16 06:30:12;;;;;;;10.13;3.15;;;5.80;99.90;;;;;;6225835;28;20057;-85
2023/11/16 06:33:14;;;;;;;9.55;2.85;;;5.90;99.90;;;;;;6214840;28;20096;-86
2023/11/16 06:36:16;;;;;;;8.38;2.70;;;5.90;99.90;;;;;;6241613;28;20073;-86
2023/11/16 06:39:21;;;;;;;7.72;2.60;;;5.90;99.90;;;;;;6216581;28;20054;-86
2023/11/16 06:42:23;;;;;;;11.30;2.47;;;5.90;99.90;;;;;;6211304;28;20112;-91
2023/11/16 06:45:27;;;;;;;14.68;2.70;;;5.90;99.90;;;;;;6244437;28;20112;-84
2023/11/16 06:48:30;;;;;;;10.00;2.65;;;5.90;99.90;;;;;;6213734;28;20083;-82
2023/11/16 06:51:32;;;;;;;8.93;2.50;;;5.90;99.90;;;;;;6209843;28;20049;-85
2023/11/16 06:54:36;;;;;;;10.18;2.90;;;6.00;99.90;;;;;;6233839;28;20496;-83
2023/11/16 06:57:39;;;;;;;12.05;2.63;;;5.90;99.90;;;;;;6228696;28;20053;-85
2023/11/16 07:00:41;;;;;;;12.20;2.95;;;5.90;99.90;;;;;;6248593;28;20052;-85
2023/11/16 07:03:44;;;;;;;9.75;2.60;;;5.90;99.90;;;;;;6210466;28;20445;-85
2023/11/16 07:06:47;;;;;;;9.25;2.70;;;6.00;99.90;;;;;;6233115;28;20072;-85
2023/11/16 07:09:49;;;;;;;8.38;2.70;;;6.00;99.90;;;;;;6207881;28;20054;-87
2023/11/16 07:12:52;;;;;;;11.10;2.92;;;6.00;99.90;;;;;;6235914;28;20049;-86
2023/11/16 07:15:55;;;;;;;10.20;2.83;;;6.00;99.90;;;;;;6226885;28;20054;-86
2023/11/16 07:18:57;;;;;;;12.82;3.55;;;6.10;99.90;;;;;;6184519;28;20046;-86
2023/11/16 07:21:59;;;;;;;10.65;3.10;;;6.10;99.90;;;;;;6249952;28;20107;-85
2023/11/16 07:25:04;;;;;;;9.15;2.65;;;6.00;99.90;;;;;;6207941;28;20137;-83
2023/11/16 07:28:07;;;;;;;9.20;2.85;;;6.10;99.90;;;;;;6248010;28;20065;-84
2023/11/16 07:31:08;;;;;;;10.60;3.22;;;6.10;99.90;;;;;;6204607;28;20061;-84
2023/11/16 07:34:11;;;;;;;8.40;2.92;;;6.10;99.90;;;;;;6185979;28;20127;-85
2023/11/16 07:37:13;;;;;;;14.35;3.55;;;6.10;99.90;;;;;;6249088;28;20064;-84
2023/11/16 07:40:18;;;;;;;10.43;3.05;;;6.10;99.90;;;;;;6208761;28;20073;-85
2023/11/16 07:43:22;;;;;;;13.55;3.83;;;6.10;99.90;;;;;;6229469;28;20101;-85
2023/11/16 07:46:24;;;;;;;12.00;3.72;;;6.10;99.90;;;;;;6225819;28;20063;-85
2023/11/16 07:49:26;;;;;;;14.45;3.80;;;6.20;99.90;;;;;;6218696;28;20056;-85
2023/11/16 07:52:28;;;;;;;14.05;3.58;;;6.10;99.90;;;;;;6212624;28;20049;-86
2023/11/16 07:55:31;;;;;;;11.48;3.55;;;6.10;99.90;;;;;;6252037;28;20060;-83
2023/11/16 07:58:39;;;;;;;10.70;2.85;;;6.20;99.90;;;;;;6217221;28;20643;-83
2023/11/16 08:01:50;;;;;;;9.45;3.20;;;6.20;99.90;;;;;;6238180;28;20053;-87
2023/11/16 08:04:51;;;;;;;12.55;3.20;;;6.30;99.90;;;;;;6211813;28;20785;-88
2023/11/16 08:07:54;;;;;;;10.38;3.30;;;6.30;99.90;;;;;;6258146;28;20045;-84
2023/11/16 08:10:56;;;;;;;12.52;3.10;;;6.30;99.90;;;;;;6216313;28;20064;-87
2023/11/16 08:13:58;;;;;;;14.75;3.53;;;6.40;99.90;;;;;;6237947;28;20057;-86
2023/11/16 08:17:00;;;;;;;14.63;3.40;;;6.40;99.90;;;;;;6210924;28;20147;-87
2023/11/16 08:20:03;;;;;;;13.73;3.50;;;6.40;99.90;;;;;;6233701;28;20057;-86
2023/11/16 08:23:05;;;;;;;12.50;3.85;;;6.40;99.90;;;;;;6225011;28;20049;-87
2023/11/16 08:26:07;;;;;;;13.40;3.70;;;6.40;99.90;;;;;;6231177;28;20076;-87
2023/11/16 08:29:09;;;;;;;15.73;3.83;;;6.50;99.90;;;;;;6234963;28;20503;-89
2023/11/16 08:32:11;;;;;;;12.35;3.67;;;6.50;99.90;;;;;;6209618;28;20420;-86
2023/11/16 08:35:15;;;;;;;12.93;3.83;;;6.50;99.90;;;;;;6230572;28;20076;-84
2023/11/16 08:38:17;;;;;;;14.80;3.72;;;6.60;99.90;;;;;;6222008;28;20054;-84
2023/11/16 08:41:19;;;;;;;11.55;3.50;;;6.60;99.90;;;;;;6230900;28;20144;-86
2023/11/16 08:44:22;;;;;;;13.43;3.58;;;6.70;99.90;;;;;;6218905;28;20041;-86
2023/11/16 08:47:26;;;;;;;14.27;3.92;;;6.70;99.90;;;;;;6206717;28;20536;-87
2023/11/16 08:50:29;;;;;;;13.88;3.67;;;6.70;99.90;;;;;;6252743;28;20135;-87
2023/11/16 08:53:32;;;;;;;14.32;3.40;;;6.70;99.90;;;;;;6208017;28;20117;-88
2023/11/16 08:56:35;;;;;;;13.73;4.15;;;6.70;99.90;;;;;;6223231;28;20069;-84
2023/11/16 08:59:59;;;;;;;12.80;3.42;;;6.70;99.90;;;;;;6203000;28;20053;-80
2023/11/16 09:03:01;;;;;;;15.13;3.60;;;6.60;99.90;;;;;;6202414;28;20413;-81
2023/11/16 09:06:06;;;;;;;10.13;3.80;;;6.60;99.90;;;;;;6243489;28;20131;-78
2023/11/16 09:09:33;;;;;;;12.75;3.92;;;6.70;99.90;;;;;;6219418;28;20104;-79
2023/11/16 09:12:32;;;;;;;15.18;3.90;;;6.70;99.90;;;;;;6195341;28;20058;-82
2023/11/16 09:15:34;;;;;;;12.60;3.67;;;6.70;99.90;;;;;;6241795;28;20055;-81
2023/11/16 09:18:38;;;;;;;15.20;3.88;;;6.70;99.90;;;;;;6219807;28;20061;-81
2023/11/16 09:21:44;;;;;;;14.27;3.78;;;6.80;99.90;;;;;;6226160;28;20402;-83
2023/11/16 09:24:49;;;;;;;18.20;5.75;;;6.70;99.90;;;;;;6219414;28;20073;-82
2023/11/16 09:27:54;;;;;;;14.88;4.25;;;6.80;99.90;;;;;;6195102;28;20500;-83
2023/11/16 09:30:57;;;;;;;15.10;3.42;;;6.80;99.90;;;;;;6242822;28;20054;-82
2023/11/16 09:34:00;;;;;;;11.38;2.83;;;6.80;99.90;;;;;;6232553;28;20053;-78
2023/11/16 09:37:02;;;;;;;13.60;3.28;;;6.80;99.90;;;;;;6219655;28;20138;-78
2023/11/16 09:40:04;;;;;;;9.88;3.25;;;6.80;99.90;;;;;;6243023;28;20053;-84
2023/11/16 09:43:24;;;;;;;13.70;3.20;;;6.80;99.90;;;;;;6223320;28;20072;-87
2023/11/16 09:46:26;;;;;;;10.87;3.13;;;6.90;99.90;;;;;;6216649;28;20061;-89
2023/11/16 09:49:30;;;;;;;15.00;3.17;;;6.90;99.90;;;;;;6226413;28;20080;-78
2023/11/16 09:52:33;;;;;;;13.55;3.10;;;7.00;99.90;;;;;;6201844;28;20386;-81
2023/11/16 09:55:37;;;;;;;14.27;3.13;;;7.00;99.90;;;;;;6243497;28;20056;-80
2023/11/16 09:58:41;;;;;;;13.25;3.20;;;7.00;99.90;;;;;;6228365;28;20050;-81
2023/11/16 10:01:46;;;;;;;12.77;3.03;;;7.10;99.90;;;;;;6219068;28;20514;-91
2023/11/16 10:04:49;;;;;;;11.38;3.03;;;7.10;99.90;;;;;;6212114;28;20076;-93
2023/11/16 10:07:56;;;;;;;9.07;2.88;;;7.10;99.90;;;;;;6203572;28;20441;-83
2023/11/16 10:11:00;;;;;;;11.57;2.75;;;7.20;99.90;;;;;;6201163;28;20512;-82
2023/11/16 10:14:02;;;;;;;12.27;2.53;;;7.20;99.90;;;;;;6221543;28;20053;-83
2023/11/16 10:17:04;;;;;;;13.93;3.40;;;7.20;99.90;;;;;;6218866;28;20065;-80
2023/11/16 10:20:06;;;;;;;18.60;5.07;;;7.20;99.90;;;;;;6242548;28;20045;-81
2023/11/16 10:23:09;;;;;;;21.17;5.07;;;7.20;99.90;;;;;;6219047;28;20421;-78
2023/11/16 10:26:11;;;;;;;12.75;4.57;;;7.30;99.90;;;;;;6242477;28;20136;-82
2023/11/16 10:29:13;;;;;;;14.88;4.82;;;7.30;99.90;;;;;;6225525;28;20050;-80
2023/11/16 10:32:15;;;;;;;12.90;5.10;;;7.40;99.90;;;;;;6206976;28;20041;-83
2023/11/16 10:35:17;;;;;;;22.85;6.97;;;7.40;99.90;;;;;;6203134;28;20085;-85
2023/11/16 10:38:22;;;;;;;23.27;6.53;;;7.40;99.90;;;;;;6231120;28;20050;-82
2023/11/16 10:41:24;;;;;;;20.25;6.82;;;7.40;99.90;;;;;;6231385;28;20061;-83
2023/11/16 10:44:27;;;;;;;16.00;7.00;;;7.50;99.90;;;;;;6211756;28;20064;-79
2023/11/16 10:47:29;;;;;;;21.50;7.47;;;7.50;99.90;;;;;;6220925;28;20497;-80
2023/11/16 10:50:32;;;;;;;19.02;8.05;;;7.50;99.90;;;;;;6242012;28;20068;-80
2023/11/16 10:53:34;;;;;;;19.08;7.63;;;7.50;99.90;;;;;;6233262;28;20054;-81
2023/11/16 10:56:37;;;;;;;21.75;8.27;;;7.50;99.90;;;;;;6216699;28;20054;-79
2023/11/16 10:59:42;;;;;;;23.52;7.90;;;7.50;99.90;;;;;;6230671;28;20050;-80
2023/11/16 11:02:44;;;;;;;20.60;8.57;;;7.60;99.90;;;;;;6221508;28;20057;-81
2023/11/16 11:05:48;;;;;;;20.67;8.00;;;7.60;99.90;;;;;;6246549;28;20084;-82
2023/11/16 11:08:53;;;;;;;19.23;8.23;;;7.70;99.90;;;;;;6246623;28;20064;-79
2023/11/16 11:12:02;;;;;;;20.50;7.72;;;7.70;99.90;;;;;;6199043;28;20058;-79
2023/11/16 11:15:05;;;;;;;20.98;7.53;;;7.70;99.90;;;;;;6195820;28;20070;-78
2023/11/16 11:18:08;;;;;;;18.85;7.00;;;7.60;99.90;;;;;;6245869;28;20522;-81
2023/11/16 11:21:12;;;;;;;25.30;8.27;;;7.70;99.90;;;;;;6222114;28;20058;-79
2023/11/16 11:24:14;;;;;;;21.00;7.32;;;7.70;99.90;;;;;;6221779;28;20062;-79
2023/11/16 11:27:15;;;;;;;19.80;7.55;;;7.70;99.90;;;;;;6200801;28;20843;-81
2023/11/16 11:30:20;;;;;;;22.83;7.30;;;7.70;99.90;;;;;;6214315;28;20061;-79
2023/11/16 11:33:22;;;;;;;24.48;7.97;;;7.80;99.90;;;;;;6208885;28;20057;-80
2023/11/16 11:36:24;;;;;;;20.88;7.45;;;7.80;99.90;;;;;;6221424;28;20111;-85
2023/11/16 11:39:26;;;;;;;21.98;8.07;;;7.80;99.90;;;;;;6219290;28;20072;-82
2023/11/16 11:42:28;;;;;;;20.23;7.22;;;7.80;99.90;;;;;;6222450;28;20065;-85
2023/11/16 11:45:30;;;;;;;18.73;6.97;;;7.80;99.90;;;;;;6237426;28;20056;-77
2023/11/16 11:48:33;;;;;;;21.92;6.78;;;7.90;99.90;;;;;;6222105;28;20054;-82
2023/11/16 11:51:34;;;;;;;18.88;7.22;;;7.90;99.90;;;;;;6246050;28;20106;-78
2023/11/16 11:54:36;;;;;;;19.63;8.25;;;8.00;99.90;;;;;;6222119;28;20046;-81
2023/11/16 11:57:39;;;;;;;19.55;7.13;;;8.00;99.90;;;;;;6225820;28;20062;-92
2023/11/16 12:00:40;;;;;;;18.33;6.63;;;8.10;99.90;;;;;;6208903;28;20054;-81
2023/11/16 12:03:42;;;;;;;18.52;6.15;;;8.20;99.90;;;;;;6245047;28;20505;-81
2023/11/16 12:06:44;;;;;;;17.85;6.78;;;8.20;99.90;;;;;;6221818;28;20050;-85
2023/11/16 12:09:49;;;;;;;17.75;5.80;;;8.30;99.90;;;;;;6227465;28;20046;-79
2023/11/16 12:12:51;;;;;;;16.65;6.18;;;8.30;99.90;;;;;;6201081;28;20053;-81
2023/11/16 12:15:53;;;;;;;14.75;5.60;;;8.30;99.90;;;;;;6221358;28;20060;-80
2023/11/16 12:18:55;;;;;;;16.63;6.00;;;8.30;99.90;;;;;;6210234;28;20050;-85
2023/11/16 12:21:57;;;;;;;21.80;6.57;;;8.40;99.90;;;;;;6244667;28;20065;-80
2023/11/16 12:24:59;;;;;;;19.50;6.60;;;8.30;99.90;;;;;;6221045;28;20053;-78
2023/11/16 12:28:01;;;;;;;21.00;6.50;;;8.30;99.90;;;;;;6242866;28;20041;-78
2023/11/16 12:31:03;;;;;;;19.13;7.07;;;8.20;99.90;;;;;;6217441;28;20112;-78
2023/11/16 12:34:06;;;;;;;19.45;6.80;;;8.30;99.90;;;;;;6209942;28;20050;-83
2023/11/16 12:37:08;;;;;;;17.63;6.60;;;8.30;99.90;;;;;;6245171;28;20160;-79
2023/11/16 12:40:16;;;;;;;18.33;6.88;;;8.30;99.90;;;;;;6220441;28;20056;-82
2023/11/16 12:43:20;;;;;;;18.20;7.15;;;8.40;99.90;;;;;;6205125;28;20659;-83
2023/11/16 12:46:23;;;;;;;21.67;7.65;;;8.40;99.90;;;;;;6227933;28;20152;-82
2023/11/16 12:49:25;;;;;;;17.90;6.90;;;8.40;99.90;;;;;;6237636;28;20056;-83
2023/11/16 12:52:27;;;;;;;20.30;7.60;;;8.50;99.90;;;;;;6209923;28;20049;-89
2023/11/16 12:55:30;;;;;;;16.50;6.95;;;8.60;99.90;;;;;;6221838;28;20050;-84
2023/11/16 12:58:33;;;;;;;20.13;7.53;;;8.50;99.90;;;;;;6209310;28;20049;-87
2023/11/16 13:01:34;;;;;;;22.63;7.15;;;8.50;99.90;;;;;;6229621;28;20085;-89
2023/11/16 13:04:36;;;;;;;20.77;7.15;;;8.50;99.90;;;;;;6181833;28;20100;-85
2023/11/16 13:07:39;;;;;;;17.55;6.68;;;8.50;99.90;;;;;;6247472;28;20588;-86
2023/11/16 13:10:40;;;;;;;20.13;7.05;;;8.50;99.90;;;;;;6207285;28;20046;-87
2023/11/16 13:13:43;;;;;;;17.90;7.10;;;8.60;99.90;;;;;;6222500;28;20133;-85
2023/11/16 13:16:49;;;;;;;20.65;7.15;;;8.60;99.90;;;;;;6223319;28;20054;-86
2023/11/16 13:19:51;;;;;;;24.77;8.18;;;8.60;99.90;;;;;;6246474;28;20138;-86
2023/11/16 13:22:52;;;;;;;19.52;7.85;;;8.60;99.90;;;;;;6207769;28;20054;-82
2023/11/16 13:25:54;;;;;;;22.42;7.43;;;8.60;99.90;;;;;;6254264;28;20056;-87
2023/11/16 13:28:55;;;;;;;23.63;7.15;;;8.50;99.90;;;;;;6227211;28;20061;-86
2023/11/16 13:31:57;;;;;;;21.27;7.30;;;8.50;99.90;;;;;;6204668;28;20042;-86
2023/11/16 13:34:59;;;;;;;21.50;7.38;;;8.50;99.90;;;;;;6244297;28;20077;-89
2023/11/16 13:38:01;;;;;;;20.70;7.50;;;8.50;99.90;;;;;;6206201;28;20441;-86
2023/11/16 13:41:05;;;;;;;20.13;7.15;;;8.50;99.90;;;;;;6246744;28;20073;-84
2023/11/16 13:44:06;;;;;;;23.13;7.88;;;8.60;99.90;;;;;;6210104;28;20520;-85
2023/11/16 13:47:09;;;;;;;21.55;7.65;;;8.60;99.90;;;;;;6203819;28;20057;-85
2023/11/16 13:50:11;;;;;;;23.23;7.95;;;8.60;99.90;;;;;;6225438;28;20535;-85
2023/11/16 13:53:13;;;;;;;22.58;7.68;;;8.60;99.90;;;;;;6220198;28;20101;-83
2023/11/16 13:56:14;;;;;;;20.02;8.15;;;8.60;99.90;;;;;;6243010;28;20058;-84
2023/11/16 13:59:16;;;;;;;22.90;7.95;;;8.70;99.90;;;;;;6210907;28;20071;-83
2023/11/16 14:02:18;;;;;;;20.85;7.57;;;8.70;99.90;;;;;;6219341;28;20058;-84
2023/11/16 14:05:20;;;;;;;19.98;7.28;;;8.70;99.90;;;;;;6243142;28;20049;-84
2023/11/16 14:08:22;;;;;;;21.00;8.25;;;8.70;99.90;;;;;;6218706;28;20445;-83
2023/11/16 14:11:24;;;;;;;20.38;7.55;;;8.70;99.90;;;;;;6243127;28;20059;-82
2023/11/16 14:14:26;;;;;;;22.67;7.47;;;8.70;99.90;;;;;;6210667;28;20508;-84
2023/11/16 14:17:28;;;;;;;17.52;6.30;;;8.70;99.90;;;;;;6219430;28;20633;-84
2023/11/16 14:20:30;;;;;;;19.00;6.93;;;8.70;99.90;;;;;;6242759;28;20065;-85
2023/11/16 14:23:31;;;;;;;20.05;6.63;;;8.70;99.90;;;;;;6201846;28;20057;-82
2023/11/16 14:26:36;;;;;;;19.02;6.32;;;8.70;99.90;;;;;;6242715;28;20055;-90
2023/11/16 14:29:38;;;;;;;17.48;5.68;;;8.70;99.90;;;;;;6215829;28;20049;-90
2023/11/16 14:32:40;;;;;;;13.35;5.70;;;8.70;99.90;;;;;;6205034;28;20509;-88
2023/11/16 14:35:43;;;;;;;16.85;5.75;;;8.70;99.90;;;;;;6213789;28;20064;-90
2023/11/16 14:38:45;;;;;;;18.92;5.60;;;8.70;99.90;;;;;;6228421;28;20057;-88
2023/11/16 14:41:47;;;;;;;17.25;5.60;;;8.80;99.90;;;;;;6253985;28;20080;-88
2023/11/16 14:44:51;;;;;;;15.27;4.95;;;8.80;99.90;;;;;;6221602;28;20057;-88
2023/11/16 14:47:53;;;;;;;17.42;5.35;;;8.80;99.90;;;;;;6239209;28;20060;-89
2023/11/16 14:50:55;;;;;;;18.23;5.28;;;8.70;99.90;;;;;;6211460;28;20053;-91
2023/11/16 14:53:57;;;;;;;14.43;5.65;;;8.80;99.90;;;;;;6262212;28;20053;-92
2023/11/16 14:57:00;;;;;;;15.75;5.28;;;8.80;99.90;;;;;;6213586;28;20060;-92
2023/11/16 15:00:02;;;;;;;18.45;5.85;;;8.70;99.90;;;;;;6248936;28;20109;-90
2023/11/16 15:03:04;;;;;;;22.77;6.03;;;8.70;99.90;;;;;;6211315;28;20204;-91
2023/11/16 15:06:06;;;;;;;17.20;5.60;;;8.70;99.90;;;;;;6252796;28;20056;-86
2023/11/16 15:09:11;;;;;;;15.25;5.30;;;8.70;99.90;;;;;;6213258;28;20050;-92
2023/11/16 15:12:14;;;;;;;17.88;5.50;;;8.60;99.90;;;;;;6192682;28;20061;-85
2023/11/16 15:15:16;;;;;;;19.90;5.65;;;8.60;99.90;;;;;;6245713;28;20056;-87
2023/11/16 15:18:18;;;;;;;19.77;5.72;;;8.50;99.90;;;;;;6208479;28;20750;-83
2023/11/16 15:21:20;;;;;;;21.05;5.82;;;8.50;99.90;;;;;;6224321;28;20089;-88
2023/11/16 15:24:21;;;;;;;32.22;16.55;;;8.60;99.90;;;;;;6197667;28;20049;-89
2023/11/16 15:27:23;;;;;;;26.05;13.05;;;8.50;99.90;;;;;;6227275;28;20060;-87
2023/11/16 15:30:24;;;;;;;24.92;10.52;;;8.40;99.90;;;;;;6219785;28;20053;-86
2023/11/16 15:33:26;;;;;;;21.77;7.40;;;8.40;99.90;;;;;;6225195;28;20058;-88
2023/11/16 15:36:32;;;;;;;15.57;6.28;;;8.30;99.90;;;;;;6181434;28;20065;-84
2023/11/16 15:39:33;;;;;;;18.77;8.73;;;8.30;99.90;;;;;;6246443;28;20409;-83
2023/11/16 15:42:35;;;;;;;26.27;12.02;;;8.30;99.90;;;;;;6230771;28;20057;-83
2023/11/16 15:45:37;;;;;;;19.27;7.60;;;8.30;99.90;;;;;;6216821;28;20061;-85
2023/11/16 15:48:41;;;;;;;36.33;17.13;;;8.30;99.90;;;;;;6204328;28;20540;-83
2023/11/16 15:51:43;;;;;;;28.02;12.80;;;8.30;99.90;;;;;;6222329;28;20058;-82